Time;durP1;ratioP1;P1;durP2;ratioP2;P2;SDS_P1;SDS_P2;PMS_P1;PMS_P2;Temp;Humidity;BMP_temperature;BMP_pressure;BME280_temperature;BME280_humidity;BME280_pressure;Samples;Min_cycle;Max_cycle;Signal;HPM_P1;HPM_P2
2021/08/14 00:02:13;;;;;;;13.40;8.38;;;18.30;97.80;;;;;;5038237;28;20045;-72
2021/08/14 00:04:38;;;;;;;13.18;7.85;;;18.30;97.80;;;;;;5050176;28;20048;-72
2021/08/14 00:07:04;;;;;;;11.70;7.45;;;18.30;97.80;;;;;;5041968;28;20385;-71
2021/08/14 00:09:33;;;;;;;14.85;7.28;;;18.20;97.80;;;;;;5050744;28;20400;-71
2021/08/14 00:11:59;;;;;;;11.38;7.18;;;18.20;97.90;;;;;;5045730;28;20063;-71
2021/08/14 00:14:25;;;;;;;16.35;8.20;;;18.30;97.90;;;;;;5054740;28;20291;-71
2021/08/14 00:16:51;;;;;;;12.65;7.50;;;18.40;97.80;;;;;;5040968;28;20036;-71
2021/08/14 00:19:16;;;;;;;12.98;7.47;;;18.40;97.80;;;;;;5036963;28;20108;-71
2021/08/14 00:21:42;;;;;;;13.55;7.82;;;18.30;97.80;;;;;;5038876;28;20025;-71
2021/08/14 00:24:08;;;;;;;11.55;7.72;;;18.30;97.80;;;;;;5043683;28;20029;-72
2021/08/14 00:26:33;;;;;;;13.65;8.13;;;18.30;97.80;;;;;;5055551;28;20031;-71
2021/08/14 00:28:59;;;;;;;13.13;7.38;;;18.30;97.80;;;;;;5035556;28;20120;-71
2021/08/14 00:31:25;;;;;;;9.95;6.90;;;18.20;97.80;;;;;;5048526;28;20028;-71
2021/08/14 00:33:50;;;;;;;12.52;7.43;;;18.10;97.80;;;;;;5056666;28;20095;-71
2021/08/14 00:36:16;;;;;;;13.20;7.97;;;18.10;97.80;;;;;;5046420;28;20120;-71
2021/08/14 00:38:42;;;;;;;12.38;7.80;;;18.10;98.00;;;;;;5053862;28;20029;-71
2021/08/14 00:41:11;;;;;;;11.13;7.32;;;18.00;97.80;;;;;;5054811;28;20437;-71
2021/08/14 00:43:38;;;;;;;12.43;8.45;;;18.00;98.00;;;;;;5055339;28;20056;-71
2021/08/14 00:46:04;;;;;;;13.55;7.43;;;17.90;98.00;;;;;;5046906;28;20022;-71
2021/08/14 00:48:31;;;;;;;11.65;7.22;;;17.90;98.00;;;;;;5041008;28;20028;-71
2021/08/14 00:50:57;;;;;;;13.02;7.53;;;17.90;98.00;;;;;;5036387;28;20426;-71
2021/08/14 00:53:24;;;;;;;10.80;7.07;;;17.80;98.00;;;;;;5039754;28;20033;-71
2021/08/14 00:55:51;;;;;;;12.63;7.28;;;17.80;98.00;;;;;;5041852;28;20112;-71
2021/08/14 00:58:20;;;;;;;12.38;7.80;;;17.80;98.00;;;;;;5043139;28;20104;-71
2021/08/14 01:00:47;;;;;;;15.63;7.30;;;17.80;98.00;;;;;;5051278;28;20040;-71
2021/08/14 01:03:13;;;;;;;15.32;6.95;;;17.80;98.00;;;;;;5036337;28;20330;-71
2021/08/14 01:05:45;;;;;;;16.98;7.43;;;17.80;98.00;;;;;;5039126;28;20040;-71
2021/08/14 01:08:13;;;;;;;18.90;7.72;;;17.80;97.90;;;;;;5056270;28;20078;-71
2021/08/14 01:10:39;;;;;;;12.57;7.35;;;17.80;98.00;;;;;;5052315;28;20116;-71
2021/08/14 01:13:05;;;;;;;11.45;7.70;;;17.80;98.00;;;;;;5037059;28;20502;-71
2021/08/14 01:15:30;;;;;;;11.68;7.40;;;17.70;98.00;;;;;;5036830;28;20029;-70
2021/08/14 01:17:57;;;;;;;14.30;7.22;;;17.80;98.00;;;;;;5036198;28;20018;-70
2021/08/14 01:20:23;;;;;;;13.10;7.43;;;17.80;97.90;;;;;;5054506;28;20029;-70
2021/08/14 01:22:50;;;;;;;11.43;7.13;;;17.80;97.90;;;;;;5076306;22;20061;-72
2021/08/14 01:25:20;;;;;;;11.80;7.43;;;17.80;97.90;;;;;;5035723;28;20087;-72
2021/08/14 01:27:46;;;;;;;12.18;6.43;;;17.80;98.00;;;;;;5033340;28;20025;-72
2021/08/14 01:30:13;;;;;;;11.38;7.43;;;17.80;97.90;;;;;;5035953;28;20052;-72
2021/08/14 01:32:39;;;;;;;12.32;7.55;;;17.80;97.90;;;;;;5035794;28;20025;-72
2021/08/14 01:35:06;;;;;;;11.82;6.40;;;17.80;97.90;;;;;;5035268;28;20049;-72
2021/08/14 01:37:33;;;;;;;10.63;7.00;;;17.80;97.80;;;;;;5035649;28;20036;-71
2021/08/14 01:39:59;;;;;;;9.55;6.47;;;17.80;97.80;;;;;;5034895;28;20029;-72
2021/08/14 01:42:25;;;;;;;11.82;6.90;;;17.80;97.80;;;;;;5034356;28;20033;-72
2021/08/14 01:44:52;;;;;;;14.27;6.85;;;17.60;97.90;;;;;;5035723;28;20033;-72
2021/08/14 01:47:18;;;;;;;16.13;7.75;;;17.50;97.90;;;;;;5035382;28;20079;-71
2021/08/14 01:49:43;;;;;;;14.90;7.88;;;17.50;98.00;;;;;;5035837;28;20033;-72
2021/08/14 01:52:13;;;;;;;11.43;7.30;;;17.50;98.00;;;;;;5035605;28;20020;-72
2021/08/14 01:54:40;;;;;;;14.18;7.40;;;17.50;98.00;;;;;;5035332;28;20117;-71
2021/08/14 01:57:06;;;;;;;11.60;7.15;;;17.50;98.00;;;;;;5035504;28;20037;-72
2021/08/14 01:59:33;;;;;;;16.70;7.32;;;17.50;98.00;;;;;;5034047;28;20376;-71
2021/08/14 02:01:59;;;;;;;11.57;7.90;;;17.60;98.00;;;;;;5031771;28;20030;-71
2021/08/14 02:04:28;;;;;;;12.88;7.75;;;17.60;98.00;;;;;;5034882;28;20018;-71
2021/08/14 02:06:56;;;;;;;11.93;7.10;;;17.60;98.00;;;;;;5035287;28;20326;-72
2021/08/14 02:09:22;;;;;;;15.23;7.60;;;17.60;97.90;;;;;;5035647;28;20026;-71
2021/08/14 02:11:47;;;;;;;12.43;6.97;;;17.50;97.90;;;;;;5035505;28;20079;-71
2021/08/14 02:14:13;;;;;;;10.73;6.45;;;17.50;98.00;;;;;;5038032;28;20421;-71
2021/08/14 02:16:39;;;;;;;10.30;7.28;;;17.50;98.00;;;;;;5038818;28;20028;-71
2021/08/14 02:19:05;;;;;;;11.20;6.85;;;17.50;97.90;;;;;;5039060;28;20036;-71
2021/08/14 02:21:31;;;;;;;13.73;7.70;;;17.50;98.00;;;;;;5039086;28;20310;-71
2021/08/14 02:23:58;;;;;;;14.07;7.18;;;17.50;98.00;;;;;;5037772;28;20136;-71
2021/08/14 02:26:25;;;;;;;13.98;7.25;;;17.50;98.00;;;;;;5038268;28;20029;-71
2021/08/14 02:28:51;;;;;;;12.55;7.78;;;17.40;98.00;;;;;;5037446;28;20095;-72
2021/08/14 02:31:16;;;;;;;13.18;7.35;;;17.40;98.00;;;;;;5039079;28;20416;-71
2021/08/14 02:33:42;;;;;;;13.07;7.70;;;17.30;98.00;;;;;;5038386;28;20357;-71
2021/08/14 02:36:09;;;;;;;12.85;7.50;;;17.30;98.00;;;;;;5038794;28;20100;-72
2021/08/14 02:38:36;;;;;;;13.02;7.45;;;17.30;98.00;;;;;;5038624;28;20067;-71
2021/08/14 02:41:03;;;;;;;11.35;6.88;;;17.30;98.00;;;;;;5038617;28;20120;-72
2021/08/14 02:43:29;;;;;;;11.23;7.80;;;17.30;98.00;;;;;;5037566;28;20017;-71
2021/08/14 02:45:55;;;;;;;18.58;8.13;;;17.30;98.00;;;;;;5038520;28;20027;-71
2021/08/14 02:48:21;;;;;;;19.73;7.47;;;17.30;98.00;;;;;;5038844;28;20029;-71
2021/08/14 02:50:47;;;;;;;13.20;7.90;;;17.30;98.00;;;;;;5038548;28;20062;-72
2021/08/14 02:53:13;;;;;;;14.10;7.78;;;17.30;98.00;;;;;;5038742;28;20103;-72
2021/08/14 02:55:40;;;;;;;16.15;8.15;;;17.40;98.00;;;;;;5038171;28;20025;-71
2021/08/14 02:58:06;;;;;;;12.55;7.82;;;17.40;98.00;;;;;;5037527;28;20034;-72
2021/08/14 03:00:32;;;;;;;13.20;8.02;;;17.30;98.00;;;;;;5037915;28;20040;-72
2021/08/14 03:02:58;;;;;;;11.90;7.68;;;17.30;98.00;;;;;;5038423;28;20017;-72
2021/08/14 03:05:24;;;;;;;12.32;7.65;;;17.30;98.00;;;;;;5038148;28;20024;-72
2021/08/14 03:07:49;;;;;;;12.00;7.70;;;17.30;98.00;;;;;;5038126;28;20060;-72
2021/08/14 03:10:15;;;;;;;13.70;8.18;;;17.20;98.00;;;;;;5038242;28;20097;-72
2021/08/14 03:12:41;;;;;;;11.32;7.30;;;17.10;98.00;;;;;;5037140;28;20050;-72
2021/08/14 03:15:08;;;;;;;12.85;7.53;;;17.10;98.00;;;;;;5037923;28;20025;-72
2021/08/14 03:17:34;;;;;;;12.82;8.55;;;17.10;98.00;;;;;;5038331;28;20064;-72
2021/08/14 03:20:02;;;;;;;12.57;7.88;;;17.00;98.00;;;;;;5037757;28;20358;-72
2021/08/14 03:22:27;;;;;;;17.38;8.40;;;17.10;98.00;;;;;;5037701;28;20033;-72
2021/08/14 03:24:53;;;;;;;14.35;8.40;;;17.10;98.00;;;;;;5037656;28;20033;-72
2021/08/14 03:27:18;;;;;;;14.07;8.18;;;17.10;98.00;;;;;;5035825;28;20021;-71
2021/08/14 03:29:44;;;;;;;15.60;8.70;;;17.10;98.00;;;;;;5037752;28;20026;-72
2021/08/14 03:32:13;;;;;;;17.08;7.93;;;17.10;98.00;;;;;;5037345;28;20523;-72
2021/08/14 03:34:41;;;;;;;13.18;8.15;;;17.10;98.00;;;;;;5037576;28;20096;-72
2021/08/14 03:37:07;;;;;;;12.40;8.18;;;17.00;98.00;;;;;;5036404;28;20033;-72
2021/08/14 03:39:35;;;;;;;16.08;8.38;;;17.00;98.00;;;;;;5037063;28;20084;-72
2021/08/14 03:42:02;;;;;;;11.73;8.13;;;17.10;98.00;;;;;;5037063;28;20034;-72
2021/08/14 03:44:28;;;;;;;12.23;7.93;;;17.00;98.00;;;;;;5036503;28;20079;-71
2021/08/14 03:46:53;;;;;;;15.45;7.97;;;17.00;98.00;;;;;;5037633;28;20365;-72
2021/08/14 03:49:19;;;;;;;13.25;7.03;;;16.90;98.00;;;;;;5036361;28;20123;-72
2021/08/14 03:51:45;;;;;;;16.83;8.48;;;16.80;98.00;;;;;;5037322;28;20025;-72
2021/08/14 03:54:11;;;;;;;12.75;7.68;;;16.80;98.00;;;;;;5037742;28;20318;-72
2021/08/14 03:56:37;;;;;;;20.60;8.43;;;16.80;98.00;;;;;;5036822;28;20021;-71
2021/08/14 03:59:02;;;;;;;17.17;8.10;;;16.80;98.00;;;;;;5035755;28;20036;-71
2021/08/14 04:01:28;;;;;;;12.90;7.70;;;16.80;98.00;;;;;;5036420;28;20084;-72
2021/08/14 04:03:54;;;;;;;13.88;7.88;;;16.80;98.00;;;;;;5036899;28;20314;-71
2021/08/14 04:06:19;;;;;;;12.45;7.80;;;16.80;98.00;;;;;;5037439;28;20564;-71
2021/08/14 04:08:45;;;;;;;13.35;7.85;;;16.70;98.00;;;;;;5036812;28;20025;-71
2021/08/14 04:11:11;;;;;;;16.45;8.32;;;16.80;98.00;;;;;;5037155;28;20041;-71
2021/08/14 04:13:36;;;;;;;14.90;8.40;;;16.80;98.00;;;;;;5035462;28;20049;-71
2021/08/14 04:16:02;;;;;;;13.25;7.53;;;16.90;98.00;;;;;;5037354;28;20729;-72
2021/08/14 04:18:28;;;;;;;13.45;8.30;;;16.90;98.00;;;;;;5021552;28;20037;-72
2021/08/14 04:20:54;;;;;;;14.77;8.85;;;16.90;98.00;;;;;;5036827;28;20025;-72
2021/08/14 04:23:23;;;;;;;13.27;8.38;;;16.90;98.00;;;;;;5036608;28;20080;-72
2021/08/14 04:25:49;;;;;;;11.98;8.10;;;16.90;98.00;;;;;;5036754;28;20468;-72
2021/08/14 04:28:15;;;;;;;11.82;8.30;;;17.00;98.00;;;;;;5034487;28;20040;-72
2021/08/14 04:30:40;;;;;;;13.00;8.65;;;17.00;98.00;;;;;;5036423;28;20377;-72
2021/08/14 04:33:06;;;;;;;16.13;8.40;;;17.00;98.00;;;;;;5036481;28;20041;-72
2021/08/14 04:35:32;;;;;;;11.18;7.63;;;17.00;98.00;;;;;;5036271;28;20025;-72
2021/08/14 04:37:57;;;;;;;12.02;7.93;;;17.00;98.00;;;;;;5036194;28;20040;-72
2021/08/14 04:40:23;;;;;;;11.90;7.43;;;17.00;98.00;;;;;;5036118;28;20484;-72
2021/08/14 04:42:49;;;;;;;12.55;8.10;;;17.00;98.00;;;;;;5035552;28;20327;-72
2021/08/14 04:45:15;;;;;;;12.75;7.93;;;17.00;98.00;;;;;;5035207;28;20095;-72
2021/08/14 04:47:41;;;;;;;11.95;7.38;;;17.00;98.00;;;;;;5036677;28;20402;-72
2021/08/14 04:50:08;;;;;;;12.48;7.28;;;17.10;98.00;;;;;;5035798;28;20033;-72
2021/08/14 04:52:34;;;;;;;11.60;7.40;;;17.10;98.00;;;;;;5036209;28;20028;-72
2021/08/14 04:55:00;;;;;;;12.43;7.15;;;17.10;98.00;;;;;;5035100;28;20025;-72
2021/08/14 04:57:26;;;;;;;11.90;8.18;;;17.10;98.00;;;;;;5034978;28;20406;-72
2021/08/14 04:59:51;;;;;;;13.80;7.47;;;17.10;98.00;;;;;;5035662;28;20108;-72
2021/08/14 05:02:17;;;;;;;12.50;7.18;;;17.20;98.00;;;;;;5036072;28;20033;-72
2021/08/14 05:04:43;;;;;;;12.60;7.18;;;17.30;98.00;;;;;;5036020;28;20234;-71
2021/08/14 05:07:09;;;;;;;12.00;6.78;;;17.30;98.00;;;;;;5036056;28;20100;-72
2021/08/14 05:09:36;;;;;;;13.45;7.80;;;17.30;98.00;;;;;;5036009;28;20429;-72
2021/08/14 05:12:02;;;;;;;15.93;7.50;;;17.30;98.00;;;;;;5036079;28;20049;-72
2021/08/14 05:14:27;;;;;;;12.73;8.10;;;17.30;98.00;;;;;;5033798;28;20041;-71
2021/08/14 05:16:53;;;;;;;11.70;7.65;;;17.30;98.00;;;;;;5027104;28;20058;-72
2021/08/14 05:19:19;;;;;;;12.38;8.25;;;17.40;98.00;;;;;;5016206;28;20037;-72
2021/08/14 05:21:45;;;;;;;13.05;7.35;;;17.40;98.00;;;;;;5028633;28;20100;-72
2021/08/14 05:24:10;;;;;;;11.80;7.22;;;17.50;98.00;;;;;;5036061;28;20036;-72
2021/08/14 05:26:36;;;;;;;11.95;7.30;;;17.60;98.00;;;;;;5035966;28;20021;-72
2021/08/14 05:29:02;;;;;;;10.52;7.53;;;17.70;98.00;;;;;;5033773;28;20029;-72
2021/08/14 05:31:27;;;;;;;12.85;7.47;;;17.70;98.00;;;;;;5035511;28;20031;-71
2021/08/14 05:34:00;;;;;;;13.90;7.40;;;17.80;98.00;;;;;;5036046;28;20021;-72
2021/08/14 05:36:26;;;;;;;12.27;7.47;;;17.90;98.00;;;;;;5035917;28;20064;-72
2021/08/14 05:38:52;;;;;;;10.40;6.88;;;17.90;98.00;;;;;;5035770;28;20064;-72
2021/08/14 05:41:17;;;;;;;10.82;6.80;;;18.00;98.00;;;;;;5035901;28;20025;-72
2021/08/14 05:43:43;;;;;;;11.90;7.13;;;18.10;98.00;;;;;;5034700;28;20028;-72
2021/08/14 05:46:08;;;;;;;10.88;7.10;;;18.20;98.00;;;;;;5035403;28;20029;-72
2021/08/14 05:48:34;;;;;;;12.25;6.65;;;18.30;98.00;;;;;;5039433;28;20033;-72
2021/08/14 05:51:00;;;;;;;11.57;7.30;;;18.50;98.00;;;;;;5039902;28;20025;-72
2021/08/14 05:53:25;;;;;;;12.15;7.35;;;18.60;97.90;;;;;;5039605;28;20540;-72
2021/08/14 05:55:51;;;;;;;10.25;6.43;;;18.70;97.90;;;;;;5039376;28;20071;-72
2021/08/14 05:58:17;;;;;;;10.95;6.75;;;18.90;97.80;;;;;;5038593;28;20029;-72
2021/08/14 06:00:42;;;;;;;14.00;7.40;;;19.00;97.80;;;;;;5039025;28;20057;-72
2021/08/14 06:03:08;;;;;;;13.07;7.07;;;19.20;97.70;;;;;;5039550;28;20083;-72
2021/08/14 06:05:34;;;;;;;14.98;7.00;;;19.30;97.70;;;;;;5039332;28;20028;-72
2021/08/14 06:07:59;;;;;;;11.13;7.03;;;19.40;97.70;;;;;;5039601;28;20033;-72
2021/08/14 06:10:25;;;;;;;10.68;6.90;;;19.40;97.60;;;;;;5038965;28;20100;-72
2021/08/14 06:12:51;;;;;;;12.27;6.78;;;19.50;97.40;;;;;;5038056;28;20037;-72
2021/08/14 06:15:16;;;;;;;14.13;7.20;;;19.60;97.20;;;;;;5039421;28;20100;-72
2021/08/14 06:17:42;;;;;;;11.55;7.35;;;19.80;97.10;;;;;;5038855;28;20108;-72
2021/08/14 06:20:12;;;;;;;11.88;6.85;;;19.90;97.10;;;;;;5038786;28;20091;-72
2021/08/14 06:22:38;;;;;;;11.77;7.45;;;20.00;97.20;;;;;;5038604;28;20320;-71
2021/08/14 06:25:05;;;;;;;13.57;6.93;;;20.20;97.30;;;;;;5038277;28;20373;-72
2021/08/14 06:27:30;;;;;;;11.50;7.25;;;20.30;97.00;;;;;;5038017;28;20766;-71
2021/08/14 06:29:56;;;;;;;17.98;6.40;;;20.40;96.50;;;;;;5039082;28;20032;-71
2021/08/14 06:32:22;;;;;;;11.95;7.00;;;20.50;96.20;;;;;;5038678;28;20116;-71
2021/08/14 06:34:47;;;;;;;10.98;7.13;;;20.70;96.00;;;;;;5039127;28;20061;-71
2021/08/14 06:37:13;;;;;;;10.73;6.40;;;20.80;95.70;;;;;;5039248;28;20480;-72
2021/08/14 06:39:39;;;;;;;11.98;6.85;;;20.90;95.50;;;;;;5038969;28;20655;-72
2021/08/14 06:42:08;;;;;;;12.18;6.07;;;21.00;95.50;;;;;;5038979;28;20104;-72
2021/08/14 06:44:34;;;;;;;11.98;6.45;;;21.10;95.00;;;;;;5037677;28;20021;-71
2021/08/14 06:47:00;;;;;;;8.88;6.03;;;21.30;94.60;;;;;;5038658;28;20100;-71
2021/08/14 06:49:26;;;;;;;9.27;5.72;;;21.50;94.60;;;;;;5038746;28;20021;-71
2021/08/14 06:51:52;;;;;;;9.73;5.72;;;21.70;94.50;;;;;;5038744;28;20083;-72
2021/08/14 06:54:18;;;;;;;12.35;6.93;;;22.00;94.20;;;;;;5038749;28;20406;-72
2021/08/14 06:56:43;;;;;;;10.85;6.82;;;22.20;93.50;;;;;;5038746;28;20318;-71
2021/08/14 06:59:09;;;;;;;9.95;6.20;;;22.50;92.70;;;;;;5036670;28;20409;-71
2021/08/14 07:01:35;;;;;;;9.73;6.55;;;22.50;93.40;;;;;;5038794;28;20040;-70
2021/08/14 07:04:00;;;;;;;9.80;6.70;;;22.50;94.10;;;;;;5038383;28;20032;-71
2021/08/14 07:06:26;;;;;;;9.57;6.60;;;22.50;93.90;;;;;;5038634;28;20107;-71
2021/08/14 07:08:53;;;;;;;13.73;6.63;;;22.50;94.40;;;;;;5038527;28;20034;-71
2021/08/14 07:11:20;;;;;;;10.27;6.60;;;22.60;93.70;;;;;;5038433;28;20068;-72
2021/08/14 07:13:47;;;;;;;10.88;6.60;;;22.70;93.10;;;;;;5037306;28;20025;-72
2021/08/14 07:16:13;;;;;;;15.90;7.65;;;22.70;93.20;;;;;;5038259;28;20088;-72
2021/08/14 07:18:38;;;;;;;11.07;6.40;;;22.80;93.60;;;;;;5038239;28;20021;-72
2021/08/14 07:21:08;;;;;;;11.93;6.32;;;22.90;92.60;;;;;;5038002;28;20441;-72
2021/08/14 07:23:34;;;;;;;13.05;6.28;;;23.10;92.50;;;;;;5037254;28;20116;-72
2021/08/14 07:26:00;;;;;;;10.35;6.05;;;23.30;92.60;;;;;;5035369;28;20330;-72
2021/08/14 07:28:27;;;;;;;10.10;6.65;;;23.60;90.40;;;;;;5020513;28;20125;-72
2021/08/14 07:30:53;;;;;;;11.73;6.45;;;24.00;88.60;;;;;;5035212;28;20330;-72
2021/08/14 07:33:19;;;;;;;10.65;6.10;;;24.30;87.80;;;;;;5037516;28;20410;-72
2021/08/14 07:35:46;;;;;;;9.27;5.90;;;24.50;86.10;;;;;;5037915;28;20029;-71
2021/08/14 07:38:13;;;;;;;8.85;5.80;;;24.70;85.80;;;;;;5037776;28;20098;-72
2021/08/14 07:40:39;;;;;;;11.40;6.18;;;24.80;83.90;;;;;;5037690;28;20021;-72
2021/08/14 07:43:07;;;;;;;10.55;6.80;;;25.00;82.10;;;;;;5036234;28;20034;-72
2021/08/14 07:45:33;;;;;;;12.13;6.00;;;24.90;82.70;;;;;;5037766;28;20090;-72
2021/08/14 07:48:03;;;;;;;10.82;5.93;;;25.10;81.10;;;;;;5037356;28;20061;-72
2021/08/14 07:50:29;;;;;;;13.07;5.38;;;25.40;82.30;;;;;;5037731;28;20335;-72
2021/08/14 07:52:55;;;;;;;12.32;5.85;;;25.90;80.00;;;;;;5037298;28;20100;-72
2021/08/14 07:55:22;;;;;;;10.65;5.30;;;26.90;78.30;;;;;;5037528;28;20022;-72
2021/08/14 07:57:48;;;;;;;10.32;5.80;;;28.50;74.30;;;;;;5035599;28;20031;-72
2021/08/14 08:00:16;;;;;;;8.55;5.32;;;30.00;69.80;;;;;;5037051;28;20033;-71
2021/08/14 08:02:43;;;;;;;7.93;4.80;;;30.90;69.00;;;;;;5037071;28;20026;-71
2021/08/14 08:05:10;;;;;;;8.43;5.15;;;31.80;65.60;;;;;;5037357;28;20033;-71
2021/08/14 08:07:37;;;;;;;8.50;5.40;;;32.40;66.00;;;;;;5037132;28;20104;-71
2021/08/14 08:10:23;;;;;;;9.63;5.07;;;33.20;62.90;;;;;;5036395;28;20024;-71
2021/08/14 08:12:49;;;;;;;10.23;4.82;;;33.30;63.00;;;;;;5035800;28;20422;-71
2021/08/14 08:15:15;;;;;;;8.57;5.05;;;32.70;66.60;;;;;;5037288;28;20036;-71
2021/08/14 08:17:42;;;;;;;8.93;5.10;;;32.80;65.30;;;;;;5037052;28;20017;-71
2021/08/14 08:20:11;;;;;;;9.90;5.10;;;32.60;65.80;;;;;;5036546;28;20078;-71
2021/08/14 08:22:37;;;;;;;12.73;5.50;;;32.90;66.10;;;;;;5036600;28;20049;-71
2021/08/14 08:25:04;;;;;;;10.52;4.93;;;32.20;67.70;;;;;;5037050;28;20151;-71
2021/08/14 08:27:30;;;;;;;9.75;5.07;;;32.10;69.30;;;;;;5035516;28;21101;-71
2021/08/14 08:29:55;;;;;;;7.07;4.93;;;32.60;67.90;;;;;;5036031;28;20116;-71
2021/08/14 08:32:21;;;;;;;9.55;4.85;;;32.90;67.00;;;;;;5036313;28;20021;-71
2021/08/14 08:34:47;;;;;;;14.93;5.72;;;33.20;66.50;;;;;;5036854;28;20163;-71
2021/08/14 08:37:12;;;;;;;8.43;5.28;;;33.70;64.80;;;;;;5036464;28;20037;-71
2021/08/14 08:39:38;;;;;;;12.60;5.57;;;33.10;67.20;;;;;;5036585;28;20018;-71
2021/08/14 08:42:08;;;;;;;10.18;5.60;;;32.50;67.70;;;;;;5036595;28;20060;-71
2021/08/14 08:44:35;;;;;;;9.20;5.28;;;32.30;68.80;;;;;;5035428;28;20406;-71
2021/08/14 08:47:01;;;;;;;8.05;4.93;;;32.70;68.50;;;;;;5036458;28;20433;-71
2021/08/14 08:49:27;;;;;;;7.97;5.07;;;33.20;67.00;;;;;;5036571;28;20108;-71
2021/08/14 08:51:53;;;;;;;9.73;4.90;;;33.30;65.70;;;;;;5036090;28;20021;-71
2021/08/14 08:54:19;;;;;;;9.43;4.85;;;33.80;64.00;;;;;;5036388;28;20497;-71
2021/08/14 08:56:46;;;;;;;8.70;5.22;;;34.40;63.10;;;;;;5036173;28;20056;-71
2021/08/14 08:59:13;;;;;;;12.60;5.35;;;34.50;63.20;;;;;;5035062;28;20408;-71
2021/08/14 09:01:39;;;;;;;10.70;6.00;;;33.90;65.70;;;;;;5036379;28;20361;-71
2021/08/14 09:04:27;;;;;;;9.85;5.65;;;33.70;66.50;;;;;;5035839;28;20029;-71
2021/08/14 09:06:55;;;;;;;10.27;5.53;;;33.70;65.80;;;;;;5036277;28;20028;-71
2021/08/14 09:09:31;;;;;;;10.40;5.60;;;33.20;67.10;;;;;;5036042;28;20112;-71
2021/08/14 09:12:05;;;;;;;9.23;5.97;;;32.60;67.70;;;;;;5036175;28;20400;-71
2021/08/14 09:14:48;;;;;;;12.05;5.93;;;32.20;69.60;;;;;;5034775;28;20037;-71
2021/08/14 09:17:14;;;;;;;9.45;5.95;;;31.80;70.00;;;;;;5036231;28;20032;-71
2021/08/14 09:19:40;;;;;;;8.57;5.53;;;32.10;69.60;;;;;;5035791;28;20455;-71
2021/08/14 09:22:20;;;;;;;10.07;5.85;;;31.90;69.20;;;;;;5035721;28;20077;-71
2021/08/14 09:24:46;;;;;;;10.38;5.72;;;31.00;71.80;;;;;;5035867;28;20430;-71
2021/08/14 09:27:15;;;;;;;8.88;5.80;;;31.60;70.60;;;;;;5034854;28;20034;-71
2021/08/14 09:29:46;;;;;;;9.02;5.70;;;32.70;68.20;;;;;;5035473;28;20053;-70
2021/08/14 09:32:14;;;;;;;9.80;5.88;;;33.30;66.90;;;;;;5035015;28;20037;-71
2021/08/14 09:34:46;;;;;;;10.15;5.82;;;33.60;65.90;;;;;;5035685;28;20361;-71
2021/08/14 09:37:15;;;;;;;9.13;5.80;;;34.00;65.80;;;;;;5036087;28;20053;-72
2021/08/14 09:39:59;;;;;;;9.27;5.75;;;33.40;66.00;;;;;;5035565;28;20108;-71
2021/08/14 09:42:26;;;;;;;8.98;5.85;;;33.10;67.80;;;;;;5034792;28;20029;-71
2021/08/14 09:45:15;;;;;;;13.48;6.10;;;33.00;67.20;;;;;;5035498;28;20030;-71
2021/08/14 09:47:44;;;;;;;8.60;5.63;;;34.00;64.70;;;;;;5035237;28;20108;-71
2021/08/14 09:50:11;;;;;;;10.35;6.05;;;34.00;65.00;;;;;;5035399;28;20057;-71
2021/08/14 09:52:37;;;;;;;10.48;5.32;;;33.90;65.00;;;;;;5035557;28;20026;-71
2021/08/14 09:55:04;;;;;;;8.60;5.57;;;34.20;64.40;;;;;;5035388;28;20480;-71
2021/08/14 09:57:29;;;;;;;11.35;6.00;;;34.70;62.10;;;;;;5034556;28;20034;-70
2021/08/14 09:59:58;;;;;;;10.02;6.13;;;34.60;62.90;;;;;;5034442;28;20083;-70
2021/08/14 10:02:32;;;;;;;12.60;6.57;;;33.80;63.90;;;;;;5033824;28;20017;-70
2021/08/14 10:04:58;;;;;;;11.68;5.80;;;32.60;66.00;;;;;;5021388;28;20030;-72
2021/08/14 10:07:25;;;;;;;9.25;6.07;;;32.60;67.40;;;;;;5016682;28;20029;-72
2021/08/14 10:09:55;;;;;;;10.05;5.80;;;32.60;65.50;;;;;;5035606;28;20414;-71
2021/08/14 10:12:21;;;;;;;8.18;5.60;;;33.20;65.70;;;;;;5033285;28;20041;-71
2021/08/14 10:14:51;;;;;;;11.43;5.63;;;33.10;64.90;;;;;;5035748;28;20026;-71
2021/08/14 10:17:17;;;;;;;10.50;5.88;;;33.80;64.50;;;;;;5035510;28;20410;-71
2021/08/14 10:19:45;;;;;;;9.55;6.00;;;33.30;65.30;;;;;;5032558;28;20311;-71
2021/08/14 10:22:11;;;;;;;9.45;6.00;;;32.10;65.60;;;;;;5015511;28;20045;-71
2021/08/14 10:24:45;;;;;;;10.50;6.20;;;32.00;67.40;;;;;;5017981;28;20026;-71
2021/08/14 10:27:13;;;;;;;15.40;6.32;;;32.70;65.90;;;;;;5034609;28;20028;-71
2021/08/14 10:29:46;;;;;;;9.45;6.03;;;33.00;66.10;;;;;;5035148;28;20120;-71
2021/08/14 10:32:32;;;;;;;9.47;5.63;;;33.80;64.10;;;;;;5022147;28;20349;-71
2021/08/14 10:35:20;;;;;;;11.68;5.97;;;34.60;62.40;;;;;;5037759;28;20343;-71
2021/08/14 10:37:50;;;;;;;8.73;5.30;;;34.70;61.80;;;;;;5038594;28;20045;-71
2021/08/14 10:40:18;;;;;;;9.52;6.18;;;35.00;61.50;;;;;;5038322;28;20036;-71
2021/08/14 10:42:48;;;;;;;9.32;5.65;;;34.90;61.40;;;;;;5037686;28;20516;-71
2021/08/14 10:45:16;;;;;;;9.75;5.68;;;34.30;61.90;;;;;;5038566;28;20021;-71
2021/08/14 10:47:44;;;;;;;10.23;5.80;;;33.40;63.40;;;;;;5038828;28;20061;-71
2021/08/14 10:50:29;;;;;;;11.48;6.32;;;33.00;64.60;;;;;;5038655;28;20116;-71
2021/08/14 10:53:15;;;;;;;12.10;5.93;;;33.00;64.30;;;;;;5038663;28;20426;-71
2021/08/14 10:55:43;;;;;;;10.57;6.13;;;33.00;64.70;;;;;;5038448;28;20037;-71
2021/08/14 10:58:23;;;;;;;14.88;6.38;;;33.20;64.20;;;;;;5037280;28;20032;-71
2021/08/14 11:01:13;;;;;;;9.82;5.75;;;33.40;63.80;;;;;;5038631;28;20032;-71
2021/08/14 11:03:39;;;;;;;8.70;5.75;;;33.90;64.00;;;;;;5038117;28;20021;-71
2021/08/14 11:06:28;;;;;;;12.07;5.90;;;34.20;62.10;;;;;;5037414;28;20104;-71
2021/08/14 11:09:18;;;;;;;11.25;6.75;;;33.20;63.20;;;;;;5038178;28;20418;-71
2021/08/14 11:11:56;;;;;;;8.80;6.07;;;32.70;64.70;;;;;;5037589;28;20030;-71
2021/08/14 11:14:36;;;;;;;9.82;6.30;;;33.00;64.90;;;;;;5036794;28;20026;-71
2021/08/14 11:17:02;;;;;;;9.25;5.57;;;33.20;64.00;;;;;;5033433;28;20053;-71
2021/08/14 11:19:52;;;;;;;10.55;6.13;;;33.20;63.80;;;;;;5017554;28;20018;-71
2021/08/14 11:22:29;;;;;;;10.20;5.72;;;33.60;63.20;;;;;;5023044;28;20096;-71
2021/08/14 11:24:58;;;;;;;12.15;6.35;;;33.60;63.10;;;;;;5038292;28;20021;-71
2021/08/14 11:27:27;;;;;;;13.70;6.53;;;33.70;62.90;;;;;;5036632;28;20036;-71
2021/08/14 11:30:00;;;;;;;11.90;6.15;;;33.50;63.80;;;;;;5037837;28;20026;-71
2021/08/14 11:32:27;;;;;;;11.60;5.50;;;33.40;64.30;;;;;;5037753;28;20072;-71
2021/08/14 11:34:54;;;;;;;12.60;6.22;;;33.70;65.40;;;;;;5037627;28;20040;-71
2021/08/14 11:37:23;;;;;;;9.93;5.32;;;34.10;62.90;;;;;;5037659;28;20084;-71
2021/08/14 11:39:55;;;;;;;8.95;5.85;;;33.70;62.60;;;;;;5037375;28;20099;-71
2021/08/14 11:42:24;;;;;;;12.20;6.45;;;33.80;62.50;;;;;;5036734;28;20029;-71
2021/08/14 11:44:54;;;;;;;11.50;5.82;;;34.00;62.10;;;;;;5037256;28;20018;-71
2021/08/14 11:47:34;;;;;;;9.75;5.65;;;34.30;61.90;;;;;;5037742;28;20029;-71
2021/08/14 11:50:01;;;;;;;9.07;5.93;;;34.30;63.30;;;;;;5037397;28;20032;-71
2021/08/14 11:52:27;;;;;;;9.38;6.15;;;34.80;64.00;;;;;;5037677;28;20029;-71
2021/08/14 11:55:08;;;;;;;11.32;5.95;;;34.90;61.40;;;;;;5037330;28;20086;-71
2021/08/14 11:57:40;;;;;;;10.18;6.57;;;34.70;62.20;;;;;;5035082;28;20079;-71
2021/08/14 12:00:26;;;;;;;11.65;6.55;;;34.40;62.20;;;;;;5037377;28;20030;-71
2021/08/14 12:03:14;;;;;;;10.90;6.25;;;33.50;63.20;;;;;;5035310;28;20037;-71
2021/08/14 12:05:45;;;;;;;9.02;6.18;;;33.70;64.50;;;;;;5035514;28;20595;-71
2021/08/14 12:08:31;;;;;;;9.05;5.88;;;32.90;64.80;;;;;;5036731;28;20441;-71
2021/08/14 12:10:58;;;;;;;11.05;6.70;;;33.30;65.30;;;;;;5037292;28;20116;-71
2021/08/14 12:13:24;;;;;;;12.27;6.38;;;33.40;64.80;;;;;;5036025;28;20025;-71
2021/08/14 12:15:49;;;;;;;11.38;6.20;;;33.60;63.80;;;;;;5037192;28;20029;-71
2021/08/14 12:18:33;;;;;;;8.98;5.75;;;33.60;63.70;;;;;;5037243;28;20314;-71
2021/08/14 12:21:00;;;;;;;11.95;6.25;;;33.40;62.90;;;;;;5037077;28;20100;-71
2021/08/14 12:23:28;;;;;;;12.30;6.88;;;32.70;64.20;;;;;;5036837;28;20685;-71
2021/08/14 12:26:02;;;;;;;9.45;6.13;;;32.40;65.20;;;;;;5037146;28;20448;-71
2021/08/14 12:28:39;;;;;;;9.48;6.07;;;32.50;65.50;;;;;;5035761;28;20461;-70
2021/08/14 12:31:19;;;;;;;11.48;6.70;;;33.00;65.90;;;;;;5036827;28;20026;-71
2021/08/14 12:33:51;;;;;;;10.43;5.85;;;33.50;64.30;;;;;;5036891;28;20024;-71
2021/08/14 12:36:36;;;;;;;12.63;6.60;;;33.80;62.70;;;;;;5035948;28;20033;-71
2021/08/14 12:39:04;;;;;;;10.50;6.30;;;33.50;63.60;;;;;;5036023;28;20053;-71
2021/08/14 12:41:39;;;;;;;13.02;6.68;;;33.30;63.50;;;;;;5019222;28;20033;-71
2021/08/14 12:44:06;;;;;;;15.38;6.55;;;33.30;64.50;;;;;;5035588;28;20014;-71